Time;durP1;ratioP1;P1;durP2;ratioP2;P2;SDS_P1;SDS_P2;PMS_P1;PMS_P2;Temp;Humidity;BMP_temperature;BMP_pressure;BME280_temperature;BME280_humidity;BME280_pressure;Samples;Min_cycle;Max_cycle;Signal;HPM_P1;HPM_P2
2023/05/26 00:02:20;;;;;;;9.10;5.30;;;;;;;20.50;100.00;100675.10;106571;1253;73758;-83
2023/05/26 00:05:09;;;;;;;8.00;5.90;;;;;;;20.45;100.00;100679.75;106216;1256;68355;-90
2023/05/26 00:07:58;;;;;;;9.00;6.20;;;;;;;20.55;100.00;100684.53;106318;1253;72736;-89
2023/05/26 00:10:46;;;;;;;7.70;5.70;;;;;;;20.58;100.00;100680.73;106633;1254;60565;-83
2023/05/26 00:13:35;;;;;;;7.90;5.40;;;;;;;20.50;100.00;100679.41;106381;1253;60467;-89
2023/05/26 00:16:24;;;;;;;6.50;5.30;;;;;;;20.59;100.00;100677.34;106356;1257;72599;-83
2023/05/26 00:19:12;;;;;;;6.50;5.10;;;;;;;20.70;100.00;100681.02;106379;1253;67270;-90
2023/05/26 00:22:02;;;;;;;9.40;5.80;;;;;;;20.68;100.00;100682.11;106200;1254;72657;-83
2023/05/26 00:24:52;;;;;;;7.30;5.20;;;;;;;20.62;100.00;100683.56;106454;1256;60415;-92
2023/05/26 00:27:40;;;;;;;8.50;5.40;;;;;;;20.71;100.00;100681.81;106397;1257;60284;-91
2023/05/26 00:30:29;;;;;;;6.60;4.90;;;;;;;20.65;100.00;100684.08;106313;1255;74097;-91
2023/05/26 00:33:17;;;;;;;6.50;5.30;;;;;;;20.46;100.00;100675.84;106247;1253;68390;-84
2023/05/26 00:36:07;;;;;;;6.40;5.10;;;;;;;20.44;100.00;100673.23;106355;1256;71368;-83
2023/05/26 00:38:55;;;;;;;6.80;4.90;;;;;;;20.63;100.00;100663.60;106369;1253;60825;-89
2023/05/26 00:41:44;;;;;;;8.00;4.80;;;;;;;20.66;100.00;100654.45;106329;1254;60326;-83
2023/05/26 00:44:33;;;;;;;6.50;5.10;;;;;;;20.72;100.00;100648.80;106178;1254;73889;-90
2023/05/26 00:47:21;;;;;;;7.20;5.00;;;;;;;20.68;100.00;100653.00;106421;1256;68254;-89
2023/05/26 00:50:12;;;;;;;6.80;5.10;;;;;;;20.63;100.00;100644.77;106386;1256;72684;-83
2023/05/26 00:53:01;;;;;;;6.30;5.20;;;;;;;20.76;100.00;100646.08;106270;1254;60537;-90
2023/05/26 00:55:51;;;;;;;8.30;5.30;;;;;;;20.70;100.00;100640.63;106263;1254;61004;-89
2023/05/26 00:58:39;;;;;;;6.80;5.20;;;;;;;20.72;100.00;100631.23;106378;1254;74292;-83
2023/05/26 01:01:30;;;;;;;7.00;5.60;;;;;;;20.66;100.00;100628.27;106340;1251;67253;-90
2023/05/26 01:04:18;;;;;;;9.80;5.90;;;;;;;20.63;100.00;100620.54;106484;1254;72643;-91
2023/05/26 01:07:10;;;;;;;7.50;5.90;;;;;;;20.65;100.00;100619.58;106390;1254;61656;-90
2023/05/26 01:09:59;;;;;;;9.20;6.10;;;;;;;20.68;100.00;100614.85;106376;1253;60297;-83
2023/05/26 01:13:03;;;;;;;9.80;6.30;;;;;;;20.70;100.00;100606.03;106378;1260;73935;-90
2023/05/26 01:15:54;;;;;;;9.90;6.40;;;;;;;20.63;100.00;100609.52;106281;1254;68760;-83
2023/05/26 01:19:13;;;;;;;7.40;6.40;;;;;;;20.65;100.00;100613.47;106282;1251;72665;-90
2023/05/26 01:22:26;;;;;;;8.90;6.70;;;;;;;20.70;100.00;100603.27;106404;1254;60357;-90
2023/05/26 01:25:25;;;;;;;7.80;6.40;;;;;;;20.69;100.00;100605.66;106200;1257;60428;-84
2023/05/26 01:28:20;;;;;;;11.10;6.50;;;;;;;20.65;100.00;100610.63;106335;1254;73908;-90
2023/05/26 01:31:09;;;;;;;11.20;6.80;;;;;;;20.48;100.00;100611.19;106369;1254;68817;-90
2023/05/26 01:33:58;;;;;;;8.50;6.40;;;;;;;20.50;100.00;100608.18;106165;1253;71407;-90
2023/05/26 01:36:46;;;;;;;8.30;5.80;;;;;;;20.55;100.00;100609.38;106383;1253;62132;-84
2023/05/26 01:39:35;;;;;;;8.70;6.30;;;;;;;20.71;100.00;100614.88;106270;1259;60289;-91
2023/05/26 01:42:27;;;;;;;10.50;6.10;;;;;;;20.68;100.00;100611.77;106446;1257;73813;-84
2023/05/26 01:45:21;;;;;;;9.90;6.30;;;;;;;20.47;100.00;100613.38;106575;1253;68690;-83
2023/05/26 01:48:09;;;;;;;9.90;6.00;;;;;;;20.66;100.00;100612.88;106308;1253;72698;-91
2023/05/26 01:50:59;;;;;;;9.20;6.60;;;;;;;20.70;100.00;100617.30;106236;1254;60436;-84
2023/05/26 01:53:48;;;;;;;9.80;6.70;;;;;;;20.46;100.00;100610.34;106235;1257;60338;-84
2023/05/26 01:56:38;;;;;;;7.50;6.00;;;;;;;20.37;100.00;100615.88;106426;1253;71971;-84
2023/05/26 01:59:26;;;;;;;6.10;5.50;;;;;;;20.34;100.00;100616.80;106280;1253;68387;-84
2023/05/26 02:02:15;;;;;;;11.30;6.10;;;;;;;20.28;100.00;100612.91;106249;1254;71403;-84
2023/05/26 02:05:04;;;;;;;8.10;6.00;;;;;;;20.45;100.00;100616.65;106150;1259;60399;-83
2023/05/26 02:07:53;;;;;;;7.90;5.60;;;;;;;20.40;100.00;100610.59;106470;1259;60940;-84
2023/05/26 02:10:41;;;;;;;9.40;6.10;;;;;;;20.34;100.00;100605.47;106585;1256;73791;-90
2023/05/26 02:13:30;;;;;;;8.90;5.60;;;;;;;20.34;100.00;100609.34;106336;1253;67255;-83
2023/05/26 02:16:21;;;;;;;7.40;6.60;;;;;;;20.39;100.00;100604.86;106329;1254;73388;-83
2023/05/26 02:19:12;;;;;;;;;;;;;;;20.43;100.00;100603.88;106317;1255;61701;-89
2023/05/26 02:22:01;;;;;;;11.30;7.10;;;;;;;20.50;100.00;100602.39;106540;1256;60431;-90
2023/05/26 02:24:50;;;;;;;7.40;6.40;;;;;;;20.40;100.00;100602.20;106388;1259;74734;-84
2023/05/26 02:27:38;;;;;;;9.60;6.60;;;;;;;20.48;100.00;100602.89;106426;1253;68485;-83
2023/05/26 02:30:27;;;;;;;8.30;6.60;;;;;;;20.54;100.00;100605.09;106328;1258;71408;-89
2023/05/26 02:33:16;;;;;;;8.20;6.50;;;;;;;20.49;100.00;100605.92;106252;1256;60491;-83
2023/05/26 02:36:06;;;;;;;9.40;6.80;;;;;;;20.46;100.00;100612.38;106283;1259;60580;-89
2023/05/26 02:38:54;;;;;;;9.90;6.80;;;;;;;20.50;100.00;100616.51;106220;1259;73863;-91
2023/05/26 02:41:43;;;;;;;9.10;7.30;;;;;;;20.57;100.00;100627.29;106260;1254;68855;-90
2023/05/26 02:44:31;;;;;;;10.20;7.80;;;;;;;20.60;100.00;100628.06;106382;1258;71485;-91
2023/05/26 02:47:20;;;;;;;9.60;7.40;;;;;;;20.68;100.00;100629.21;106219;1254;60565;-84
2023/05/26 02:50:09;;;;;;;9.00;7.30;;;;;;;20.68;100.00;100622.84;106078;1259;60438;-84
2023/05/26 02:52:58;;;;;;;10.00;7.80;;;;;;;20.43;100.00;100621.18;106313;1254;73898;-83
2023/05/26 02:55:46;;;;;;;8.50;7.20;;;;;;;20.55;100.00;100621.94;106333;1259;68710;-83
2023/05/26 02:58:35;;;;;;;9.80;6.90;;;;;;;20.52;100.00;100627.21;106347;1253;72431;-90
2023/05/26 03:01:24;;;;;;;8.30;7.40;;;;;;;20.65;100.00;100631.49;106180;1254;60571;-84
2023/05/26 03:04:13;;;;;;;9.80;7.10;;;;;;;20.86;100.00;100634.05;106350;1254;59182;-90
2023/05/26 03:07:02;;;;;;;9.90;6.90;;;;;;;20.83;100.00;100636.32;106140;1254;73580;-84
2023/05/26 03:09:53;;;;;;;9.10;6.80;;;;;;;20.82;100.00;100636.84;106102;1254;67278;-83
2023/05/26 03:12:42;;;;;;;10.80;7.80;;;;;;;20.86;100.00;100639.96;106161;1259;71395;-90
2023/05/26 03:15:36;;;;;;;10.60;7.40;;;;;;;20.89;100.00;100640.23;106225;1255;60517;-83
2023/05/26 03:18:28;;;;;;;10.70;6.90;;;;;;;20.98;100.00;100642.63;106160;1254;60517;-84
2023/05/26 03:21:17;;;;;;;9.20;6.90;;;;;;;21.04;100.00;100643.38;106240;1254;72701;-84
2023/05/26 03:24:25;;;;;;;8.40;6.90;;;;;;;21.12;100.00;100647.67;106150;1254;68782;-90
2023/05/26 04:45:17;;;;;;;8.50;6.20;;;;;;;22.41;100.00;100717.40;106255;1260;71477;-91
2023/05/26 04:48:10;;;;;;;8.70;5.40;;;;;;;22.48;100.00;100716.23;106156;1254;60832;-90
2023/05/26 04:51:01;;;;;;;6.70;4.90;;;;;;;22.56;100.00;100717.59;106445;1257;60584;-83
2023/05/26 04:53:50;;;;;;;7.00;5.10;;;;;;;22.32;100.00;100716.49;106227;1254;73916;-83
2023/05/26 04:56:38;;;;;;;9.10;5.90;;;;;;;22.18;100.00;100712.71;106331;1260;67139;-91
2023/05/26 04:59:27;;;;;;;5.30;4.80;;;;;;;22.15;100.00;100707.45;106269;1253;70789;-90
2023/05/26 05:02:16;;;;;;;9.60;4.50;;;;;;;22.11;100.00;100702.98;106338;1260;60853;-83
2023/05/26 05:05:24;;;;;;;7.10;4.50;;;;;;;22.28;100.00;100705.73;106279;1259;60354;-83
2023/05/26 05:08:13;;;;;;;7.70;4.60;;;;;;;22.34;100.00;100703.98;106369;1257;72605;-89
2023/05/26 05:11:03;;;;;;;5.90;4.60;;;;;;;22.18;100.00;100705.90;106273;1259;69493;-84
2023/05/26 05:13:52;;;;;;;9.10;5.60;;;;;;;22.42;100.00;100708.04;106480;1257;73186;-84
2023/05/26 05:16:41;;;;;;;7.30;4.90;;;;;;;22.49;100.00;100717.46;106246;1256;61713;-89
2023/05/26 05:19:30;;;;;;;7.10;5.20;;;;;;;22.57;100.00;100723.64;106414;1260;60992;-84
2023/05/26 05:22:20;;;;;;;6.30;4.50;;;;;;;22.65;100.00;100726.22;106392;1254;74384;-84
2023/05/26 05:25:08;;;;;;;5.60;4.50;;;;;;;22.75;100.00;100723.69;106189;1254;68345;-91
2023/05/26 05:27:57;;;;;;;9.10;5.20;;;;;;;22.89;100.00;100720.41;106344;1254;71842;-84
2023/05/26 05:30:46;;;;;;;10.00;5.30;;;;;;;23.10;100.00;100716.55;106676;1258;59906;-90
2023/05/26 05:33:38;;;;;;;8.90;5.40;;;;;;;23.25;100.00;100720.59;106367;1260;59190;-90
2023/05/26 05:36:27;;;;;;;6.70;4.80;;;;;;;23.40;100.00;100719.45;106294;1254;72565;-90
2023/05/26 05:39:16;;;;;;;6.80;5.40;;;;;;;23.45;100.00;100718.71;106447;1257;68936;-90
2023/05/26 05:42:06;;;;;;;6.70;4.40;;;;;;;23.61;100.00;100721.10;106329;1260;71410;-89
2023/05/26 05:44:55;;;;;;;11.20;4.90;;;;;;;23.73;100.00;100720.12;106252;1257;61621;-92
2023/05/26 05:48:09;;;;;;;6.40;4.60;;;;;;;24.13;100.00;100722.08;106265;1254;60501;-91
2023/05/26 05:51:08;;;;;;;6.50;5.10;;;;;;;24.31;100.00;100725.98;106564;1252;72607;-91
2023/05/26 05:53:57;;;;;;;6.60;3.80;;;;;;;24.53;100.00;100722.06;106394;1253;67463;-91
2023/05/26 05:56:47;;;;;;;5.80;3.30;;;;;;;24.93;100.00;100722.14;106232;1259;72957;-91
2023/05/26 05:59:40;;;;;;;4.80;3.20;;;;;;;25.13;100.00;100717.71;106434;1254;60478;-91
2023/05/26 06:02:29;;;;;;;5.70;3.30;;;;;;;25.26;100.00;100721.66;106367;1259;60338;-90
2023/05/26 06:05:18;;;;;;;4.80;3.50;;;;;;;25.27;100.00;100724.40;106281;1254;64533;-90
2023/05/26 06:08:07;;;;;;;4.60;3.10;;;;;;;25.27;100.00;100725.11;106417;1251;61193;-90
2023/05/26 06:10:56;;;;;;;3.80;3.00;;;;;;;25.27;100.00;100719.13;106214;1258;65731;-90
2023/05/26 06:13:45;;;;;;;5.90;3.40;;;;;;;25.23;100.00;100718.90;106230;1254;60476;-89
2023/05/26 06:16:36;;;;;;;6.80;3.30;;;;;;;25.12;100.00;100719.08;106311;1257;61175;-90
2023/05/26 06:19:27;;;;;;;4.50;3.40;;;;;;;25.10;100.00;100718.57;106360;1256;64993;-90
2023/05/26 06:22:16;;;;;;;4.60;3.20;;;;;;;25.11;100.00;100719.60;106277;1258;67794;-91
2023/05/26 06:25:05;;;;;;;5.00;3.50;;;;;;;25.18;100.00;100723.03;106416;1254;62523;-90
2023/05/26 06:27:53;;;;;;;4.90;3.60;;;;;;;25.34;100.00;100725.46;106387;1254;60384;-90
2023/05/26 06:30:42;;;;;;;3.60;2.80;;;;;;;25.34;100.00;100729.54;106452;1257;60402;-91
2023/05/26 06:33:57;;;;;;;4.70;3.10;;;;;;;25.41;100.00;100732.05;106314;1260;64993;-92
2023/05/26 06:36:46;;;;;;;3.60;3.20;;;;;;;25.52;100.00;100737.52;106500;1260;60717;-90
2023/05/26 06:39:35;;;;;;;3.80;3.30;;;;;;;25.60;100.00;100734.69;106362;1254;63879;-91
2023/05/26 06:42:24;;;;;;;6.50;3.40;;;;;;;25.61;100.00;100739.75;106252;1260;59314;-90
2023/05/26 06:45:15;;;;;;;4.10;3.30;;;;;;;25.61;100.00;100737.43;106254;1254;60344;-91
2023/05/26 06:48:04;;;;;;;4.30;3.30;;;;;;;25.68;100.00;100737.95;106362;1260;65352;-91
2023/05/26 06:50:57;;;;;;;;;;;;;;;25.73;100.00;100744.18;106273;1259;60467;-91
2023/05/26 06:53:46;;;;;;;3.40;2.90;;;;;;;25.68;100.00;100748.73;106302;1254;63750;-91
2023/05/26 06:56:35;;;;;;;7.40;3.70;;;;;;;25.67;100.00;100750.48;106112;1254;59974;-91
2023/05/26 06:59:24;;;;;;;4.60;3.30;;;;;;;25.64;100.00;100755.23;106173;1253;60720;-91
2023/05/26 07:02:12;;;;;;;5.90;3.50;;;;;;;25.60;100.00;100758.67;106388;1254;63729;-91
2023/05/26 07:05:01;;;;;;;4.80;3.70;;;;;;;25.52;100.00;100754.95;106230;1253;60590;-92
2023/05/26 07:07:50;;;;;;;6.10;4.00;;;;;;;25.44;100.00;100753.70;106177;1254;63774;-91
2023/05/26 07:10:39;;;;;;;5.30;3.50;;;;;;;25.39;100.00;100753.21;106253;1254;59209;-91
2023/05/26 07:13:28;;;;;;;5.90;3.90;;;;;;;25.40;100.00;100754.27;106348;1254;60437;-91
2023/05/26 07:16:16;;;;;;;7.10;4.00;;;;;;;25.43;100.00;100755.74;106389;1258;65177;-91
2023/05/26 07:19:05;;;;;;;5.90;4.50;;;;;;;25.42;100.00;100750.86;106315;1256;61227;-91
2023/05/26 07:21:54;;;;;;;6.30;4.10;;;;;;;25.51;100.00;100756.30;106457;1257;63704;-90
2023/05/26 07:24:44;;;;;;;7.30;4.50;;;;;;;25.66;100.00;100754.47;106424;1254;61285;-90
2023/05/26 07:27:34;;;;;;;7.20;4.50;;;;;;;25.78;100.00;100754.80;106163;1254;61237;-91
2023/05/26 07:30:23;;;;;;;8.80;5.10;;;;;;;25.93;100.00;100755.63;106161;1254;65613;-91
2023/05/26 07:33:25;;;;;;;7.20;4.70;;;;;;;25.98;100.00;100754.34;106335;1260;61558;-91
2023/05/26 07:36:14;;;;;;;5.80;4.70;;;;;;;25.98;100.00;100752.98;106324;1254;63865;-90
2023/05/26 07:39:03;;;;;;;6.90;4.80;;;;;;;26.07;100.00;100753.27;106255;1253;61345;-91
2023/05/26 07:41:52;;;;;;;6.60;4.90;;;;;;;26.14;100.00;100753.88;106478;1256;61333;-90
2023/05/26 07:44:41;;;;;;;6.20;4.30;;;;;;;26.33;100.00;100755.41;106399;1254;66161;-92
2023/05/26 07:47:31;;;;;;;4.30;3.90;;;;;;;26.50;100.00;100759.00;106289;1257;68703;-91
2023/05/26 07:50:20;;;;;;;4.10;3.40;;;;;;;26.67;100.00;100757.06;106353;1254;63894;-92
2023/05/26 07:53:12;;;;;;;4.30;3.50;;;;;;;26.97;100.00;100751.41;106452;1254;61384;-92
2023/05/26 07:56:01;;;;;;;5.00;3.90;;;;;;;27.23;100.00;100754.81;106442;1254;61419;-91
2023/05/26 07:58:51;;;;;;;6.10;3.50;;;;;;;27.46;100.00;100758.31;106457;1257;65742;-92
2023/05/26 08:04:27;;;;;;;4.20;2.90;;;;;;;27.69;100.00;100756.11;103210;1292;600062;-88
2023/05/26 08:07:16;;;;;;;3.70;3.40;;;;;;;27.62;100.00;100757.02;105359;1269;59795;-87
2023/05/26 08:10:07;;;;;;;4.00;3.00;;;;;;;27.68;100.00;100754.17;105517;1267;59161;-89
2023/05/26 08:12:56;;;;;;;4.80;3.10;;;;;;;27.81;100.00;100753.72;105319;1272;63903;-89
2023/05/26 08:15:45;;;;;;;4.30;2.50;;;;;;;27.95;100.00;100751.27;105642;1272;60451;-88
2023/05/26 08:18:34;;;;;;;2.50;2.30;;;;;;;28.01;98.19;100751.48;105281;1264;335922;-89
2023/05/26 08:21:22;;;;;;;3.50;2.80;;;;;;;28.07;99.60;100750.39;105582;1266;62214;-89
2023/05/26 08:24:11;;;;;;;4.90;2.70;;;;;;;28.20;96.28;100745.16;105709;1263;59278;-89
2023/05/26 08:27:00;;;;;;;5.20;2.40;;;;;;;28.34;92.23;100736.89;105702;1263;62041;-90
2023/05/26 08:29:49;;;;;;;3.10;2.80;;;;;;;28.64;95.52;100734.94;105724;1263;59157;-88
2023/05/26 08:32:38;;;;;;;4.60;2.80;;;;;;;29.00;93.12;100727.35;105888;1269;63781;-88
2023/05/26 08:35:27;;;;;;;4.30;2.90;;;;;;;29.12;87.69;100728.02;105665;1270;59650;-88
2023/05/26 08:38:15;;;;;;;3.90;2.50;;;;;;;29.32;81.28;100729.02;105658;1263;62635;-88
2023/05/26 08:41:04;;;;;;;3.50;2.90;;;;;;;29.32;81.38;100724.03;106146;1258;64157;-88
2023/05/26 08:43:57;;;;;;;5.70;3.10;;;;;;;29.35;82.57;100724.27;106051;1256;60864;-88
2023/05/26 08:46:57;;;;;;;4.30;3.00;;;;;;;29.42;80.71;100721.46;106122;1260;62536;-88
2023/05/26 08:49:56;;;;;;;4.00;3.40;;;;;;;29.38;75.04;100720.96;106175;1257;59660;-89
2023/05/26 08:52:46;;;;;;;5.70;3.60;;;;;;;29.16;80.99;100714.93;106347;1257;59811;-88
2023/05/26 08:55:52;;;;;;;3.50;3.20;;;;;;;29.31;88.39;100713.89;106039;1261;64764;-89
2023/05/26 08:58:43;;;;;;;5.20;3.50;;;;;;;29.65;85.73;100715.50;106102;1260;59915;-89
2023/05/26 09:01:34;;;;;;;3.60;3.00;;;;;;;30.01;79.89;100716.17;106085;1257;62541;-90
2023/05/26 09:04:25;;;;;;;4.30;3.40;;;;;;;30.22;76.56;100714.61;106087;1258;59570;-89
2023/05/26 09:07:14;;;;;;;3.40;3.00;;;;;;;30.45;73.36;100707.92;106197;1255;59669;-88
2023/05/26 09:10:41;;;;;;;;;;;;;;;30.62;70.72;100705.82;105928;1257;62829;-90
2023/05/26 09:13:32;;;;;;;4.70;2.70;;;;;;;30.56;72.03;100707.63;105579;1263;59609;-90
2023/05/26 09:16:24;;;;;;;3.20;2.90;;;;;;;30.77;65.86;100701.16;106128;1257;62511;-90
2023/05/26 09:19:14;;;;;;;4.20;2.70;;;;;;;31.26;60.41;100698.66;106134;1263;59631;-89
2023/05/26 09:22:07;;;;;;;2.70;2.50;;;;;;;31.21;60.99;100696.13;106025;1260;59522;-90
2023/05/26 09:24:56;;;;;;;3.60;2.50;;;;;;;31.48;54.65;100698.59;106430;1251;64142;-90
2023/05/26 09:27:47;;;;;;;3.00;2.40;;;;;;;31.32;51.54;100696.20;106529;1256;59410;-91
2023/05/26 09:30:36;;;;;;;3.90;2.40;;;;;;;31.08;51.91;100692.44;106437;1256;64377;-90
2023/05/26 09:33:25;;;;;;;3.50;2.50;;;;;;;30.95;53.64;100689.30;106656;1256;59615;-89
2023/05/26 09:36:15;;;;;;;2.80;2.40;;;;;;;30.84;56.85;100687.18;106514;1251;59710;-89
2023/05/26 09:39:05;;;;;;;3.00;2.30;;;;;;;30.74;54.56;100683.35;106657;1256;65093;-90
2023/05/26 09:41:54;;;;;;;3.80;2.70;;;;;;;30.62;52.53;100680.61;106588;1251;60259;-90
2023/05/26 09:44:47;;;;;;;4.10;2.40;;;;;;;30.50;54.11;100684.79;106475;1253;64317;-90
2023/05/26 09:47:36;;;;;;;4.20;2.40;;;;;;;30.45;54.51;100686.09;106834;1251;59859;-90
2023/05/26 09:50:25;;;;;;;3.70;2.20;;;;;;;30.18;54.20;100686.75;106472;1251;59243;-88
2023/05/26 09:53:13;;;;;;;4.80;2.40;;;;;;;29.87;53.67;100682.73;106335;1251;64188;-88
2023/05/26 09:56:02;;;;;;;3.30;2.40;;;;;;;29.50;56.64;100678.83;106430;1251;59813;-88
2023/05/26 09:58:51;;;;;;;3.10;2.50;;;;;;;29.38;60.44;100675.30;106513;1251;63789;-89
2023/05/26 10:01:40;;;;;;;4.30;2.30;;;;;;;29.47;61.22;100666.53;106308;1251;59617;-90
2023/05/26 10:04:28;;;;;;;5.00;2.20;;;;;;;29.69;60.18;100667.09;106334;1251;59620;-91
2023/05/26 10:07:18;;;;;;;3.30;2.50;;;;;;;30.00;60.98;100662.09;106418;1251;62856;-89
2023/05/26 10:10:11;;;;;;;;;;;;;;;30.16;58.83;100662.04;106515;1250;59685;-89
2023/05/26 10:13:02;;;;;;;2.70;2.30;;;;;;;30.16;59.94;100661.88;106480;1254;64295;-88
2023/05/26 10:15:50;;;;;;;2.50;2.10;;;;;;;30.15;55.99;100661.89;106421;1252;59539;-87
2023/05/26 10:18:43;;;;;;;4.10;2.00;;;;;;;30.11;54.21;100664.63;106534;1251;59266;-90
2023/05/26 10:21:38;;;;;;;2.50;2.10;;;;;;;30.06;53.11;100666.42;106522;1251;64771;-90
2023/05/26 10:24:33;;;;;;;3.70;2.30;;;;;;;30.06;54.27;100666.75;106320;1251;59684;-89
2023/05/26 10:27:45;;;;;;;3.40;2.10;;;;;;;30.13;53.04;100662.05;106506;1253;64246;-89
2023/05/26 10:30:34;;;;;;;3.60;2.20;;;;;;;30.16;52.34;100659.54;106594;1252;59675;-89
2023/05/26 10:33:53;;;;;;;2.20;2.00;;;;;;;30.24;51.80;100658.23;106453;1257;59650;-89
2023/05/26 10:37:03;;;;;;;2.10;1.90;;;;;;;30.43;51.70;100649.47;106703;1251;63394;-90
2023/05/26 10:39:54;;;;;;;2.00;1.70;;;;;;;30.61;48.38;100645.17;106396;1254;59637;-91
2023/05/26 10:43:00;;;;;;;2.70;2.00;;;;;;;30.80;48.76;100640.30;106308;1251;64248;-92
2023/05/26 10:46:01;;;;;;;3.90;1.80;;;;;;;31.08;45.98;100637.77;106363;1256;59727;-90
2023/05/26 10:48:57;;;;;;;2.20;2.00;;;;;;;31.20;46.17;100635.48;106569;1256;61263;-90
2023/05/26 10:51:54;;;;;;;2.50;1.80;;;;;;;31.24;46.95;100634.08;106493;1254;63089;-90
2023/05/26 10:54:47;;;;;;;2.60;1.80;;;;;;;31.52;47.29;100632.95;106413;1251;60952;-91
2023/05/26 10:57:39;;;;;;;2.50;2.30;;;;;;;31.83;44.13;100629.05;106339;1254;62659;-88
2023/05/26 11:00:28;;;;;;;2.20;2.00;;;;;;;31.75;44.00;100627.05;106484;1251;59621;-89
2023/05/26 11:03:56;;;;;;;3.00;2.40;;;;;;;31.93;44.34;100627.83;106487;1251;59476;-89
2023/05/26 11:06:50;;;;;;;2.50;1.80;;;;;;;32.25;43.88;100624.61;106059;1259;64177;-90
2023/05/26 11:09:38;;;;;;;2.50;2.20;;;;;;;32.42;43.32;100622.44;106786;1251;60572;-88
2023/05/26 11:12:31;;;;;;;4.10;2.10;;;;;;;32.60;42.78;100622.21;106314;1254;67280;-89
2023/05/26 11:15:30;;;;;;;2.40;2.20;;;;;;;32.84;41.70;100612.95;106614;1253;60082;-88
2023/05/26 11:18:19;;;;;;;2.50;2.30;;;;;;;33.05;42.30;100600.40;106436;1251;60952;-89
2023/05/26 11:21:08;;;;;;;2.80;2.00;;;;;;;33.41;41.32;100597.27;106403;1257;64176;-89
2023/05/26 11:23:57;;;;;;;2.60;1.80;;;;;;;33.75;39.38;100596.39;106506;1256;59739;-89
2023/05/26 11:26:45;;;;;;;3.60;2.20;;;;;;;34.07;39.12;100597.05;107608;1254;62584;-90
2023/05/26 11:29:34;;;;;;;2.90;2.30;;;;;;;34.20;40.45;100596.03;106428;1251;60316;-89
2023/05/26 11:32:23;;;;;;;3.60;2.10;;;;;;;34.33;39.86;100594.92;106562;1256;59501;-89
2023/05/26 11:35:24;;;;;;;3.30;2.20;;;;;;;34.48;39.82;100597.12;106350;1254;62918;-89
2023/05/26 11:38:13;;;;;;;3.50;1.80;;;;;;;34.24;37.15;100594.98;106495;1256;58601;-88
2023/05/26 11:41:10;;;;;;;4.10;2.00;;;;;;;33.75;38.55;100590.66;106679;1256;62548;-89
2023/05/26 11:43:59;;;;;;;3.90;2.00;;;;;;;33.32;38.41;100587.32;106361;1254;59673;-88
2023/05/26 11:46:48;;;;;;;2.70;1.90;;;;;;;32.93;38.31;100581.85;106705;1256;59410;-89
2023/05/26 11:49:36;;;;;;;2.40;2.00;;;;;;;32.69;39.55;100580.45;106770;1251;64409;-89
2023/05/26 11:52:25;;;;;;;2.80;2.00;;;;;;;32.67;40.95;100580.98;106320;1251;60002;-89
2023/05/26 11:55:14;;;;;;;3.50;2.20;;;;;;;32.79;40.89;100578.59;106589;1256;63947;-89
2023/05/26 11:58:03;;;;;;;2.70;2.30;;;;;;;32.65;40.32;100578.17;106904;1256;59829;-89
2023/05/26 12:00:56;;;;;;;3.40;2.10;;;;;;;32.52;40.35;100577.40;106503;1251;60032;-88
2023/05/26 12:03:45;;;;;;;4.40;1.90;;;;;;;32.44;40.57;100577.17;106591;1251;66727;-91
2023/05/26 12:06:38;;;;;;;3.60;2.30;;;;;;;32.42;41.05;100570.84;106626;1251;59631;-88
2023/05/26 12:09:27;;;;;;;3.70;2.00;;;;;;;32.47;42.03;100572.03;106621;1251;74934;-90
2023/05/26 12:12:16;;;;;;;3.90;2.10;;;;;;;32.39;41.72;100570.05;106484;1251;59681;-89
2023/05/26 12:15:08;;;;;;;2.60;2.30;;;;;;;32.31;41.46;100567.17;106407;1251;59644;-89
2023/05/26 12:17:56;;;;;;;;;;;;;;;32.33;41.77;100565.94;106558;1256;64102;-89
2023/05/26 12:20:45;;;;;;;4.00;2.10;;;;;;;32.45;41.73;100567.05;106496;1256;59710;-89
2023/05/26 12:23:34;;;;;;;2.30;1.90;;;;;;;32.49;41.62;100561.04;106381;1251;64183;-90
2023/05/26 12:26:27;;;;;;;2.90;2.00;;;;;;;32.36;40.56;100556.85;106479;1254;60116;-90
2023/05/26 12:29:16;;;;;;;2.80;1.90;;;;;;;32.30;41.08;100559.27;106535;1256;59723;-90
2023/05/26 12:32:05;;;;;;;1.80;1.70;;;;;;;32.24;39.99;100556.47;106581;1256;64266;-89
2023/05/26 12:34:55;;;;;;;4.70;1.80;;;;;;;32.09;40.13;100560.05;106690;1251;59535;-89
2023/05/26 12:37:43;;;;;;;3.40;1.80;;;;;;;31.99;40.84;100561.00;106562;1253;62617;-88
2023/05/26 12:40:32;;;;;;;2.90;1.50;;;;;;;31.94;39.57;100564.46;106541;1251;59529;-89
2023/05/26 12:43:21;;;;;;;1.80;1.70;;;;;;;31.83;39.05;100564.82;106560;1253;59705;-88
2023/05/26 12:46:09;;;;;;;2.00;1.60;;;;;;;31.66;38.97;100567.29;106472;1251;64216;-88
2023/05/26 12:48:58;;;;;;;2.30;1.70;;;;;;;31.46;40.48;100568.56;106737;1256;59780;-89
2023/05/26 12:51:47;;;;;;;2.70;1.80;;;;;;;31.43;40.97;100568.19;106569;1254;65004;-89
2023/05/26 12:54:36;;;;;;;1.90;1.80;;;;;;;31.45;40.64;100571.23;106479;1252;60447;-88
2023/05/26 12:57:24;;;;;;;2.50;2.10;;;;;;;31.43;40.53;100572.39;106463;1251;60527;-88
2023/05/26 13:00:13;;;;;;;2.50;1.80;;;;;;;31.41;41.23;100576.36;106553;1254;64933;-88
2023/05/26 13:03:02;;;;;;;2.50;2.10;;;;;;;31.37;43.31;100584.44;106475;1251;60437;-85
2023/05/26 13:05:50;;;;;;;2.40;2.20;;;;;;;31.28;45.14;100587.33;106474;1251;63732;-88
2023/05/26 13:08:39;;;;;;;2.40;2.10;;;;;;;31.17;45.01;100588.82;106434;1253;60434;-88
2023/05/26 13:11:28;;;;;;;3.50;1.90;;;;;;;30.95;45.49;100590.70;106642;1251;60380;-85
2023/05/26 13:14:18;;;;;;;2.80;1.80;;;;;;;30.67;45.62;100587.84;106515;1256;64930;-89
2023/05/26 13:17:06;;;;;;;1.90;1.70;;;;;;;30.47;45.23;100588.95;106429;1256;60346;-89
2023/05/26 13:19:56;;;;;;;1.70;1.60;;;;;;;30.27;46.12;100596.70;106375;1253;63797;-89
2023/05/26 13:22:45;;;;;;;2.40;1.50;;;;;;;30.26;44.46;100591.89;106437;1251;60446;-88
2023/05/26 13:25:34;;;;;;;2.60;1.20;;;;;;;30.10;43.81;100589.45;106613;1251;60902;-88
2023/05/26 13:28:23;;;;;;;3.40;1.80;;;;;;;29.93;45.61;100590.16;106435;1256;64955;-89
2023/05/26 13:31:12;;;;;;;2.40;1.70;;;;;;;29.73;48.84;100590.08;106665;1254;60533;-88
2023/05/26 13:34:00;;;;;;;2.20;1.90;;;;;;;29.62;51.42;100593.71;106395;1252;63363;-88
2023/05/26 13:36:49;;;;;;;4.40;1.70;;;;;;;29.49;52.78;100589.63;106446;1256;60450;-88
2023/05/26 13:39:37;;;;;;;4.20;1.80;;;;;;;29.43;54.55;100589.00;106329;1251;60336;-88
2023/05/26 13:42:26;;;;;;;8.50;1.90;;;;;;;29.26;55.58;100597.41;106479;1252;64924;-88
2023/05/26 13:45:15;;;;;;;2.90;1.50;;;;;;;29.09;58.63;100597.09;106460;1251;69765;-88
2023/05/26 13:48:04;;;;;;;3.70;1.40;;;;;;;29.01;60.97;100600.20;106412;1251;66043;-88
2023/05/26 13:50:53;;;;;;;1.80;1.40;;;;;;;28.94;61.48;100602.36;106417;1253;60418;-88
2023/05/26 13:53:42;;;;;;;2.40;1.40;;;;;;;28.92;62.33;100595.86;106432;1254;60460;-89
2023/05/26 13:56:31;;;;;;;2.80;1.50;;;;;;;28.99;62.75;100589.59;106504;1251;64970;-88
2023/05/26 13:59:19;;;;;;;2.20;1.60;;;;;;;29.07;62.47;100589.70;106731;1251;60953;-88
2023/05/26 14:02:08;;;;;;;2.20;1.60;;;;;;;29.14;61.68;100597.97;106378;1256;62645;-88
2023/05/26 14:04:57;;;;;;;2.00;1.40;;;;;;;29.21;62.72;100599.25;106366;1251;60431;-88
2023/05/26 14:07:47;;;;;;;2.90;1.70;;;;;;;29.23;64.18;100595.15;106532;1251;60536;-88
2023/05/26 14:10:36;;;;;;;1.70;1.40;;;;;;;29.13;66.48;100596.20;106276;1251;64969;-89
2023/05/26 14:13:24;;;;;;;2.70;1.50;;;;;;;29.01;68.28;100601.00;106467;1256;60272;-88
2023/05/26 14:16:13;;;;;;;2.80;1.70;;;;;;;28.77;69.40;100599.86;106369;1257;62492;-88
2023/05/26 14:19:02;;;;;;;3.30;1.40;;;;;;;28.55;71.37;100604.41;106463;1251;60412;-88
2023/05/26 14:21:54;;;;;;;4.50;2.00;;;;;;;28.57;73.63;100600.80;106563;1252;60405;-88
2023/05/26 14:25:03;;;;;;;2.30;1.60;;;;;;;28.84;74.84;100596.42;106373;1254;74875;-88